Terminal Aerodrome Forecast
Issued by NWS

Home | Current Version | Previous Version | Text Only | Print | Product List | Glossary On
Versions: 1 2 3 4 5 6 7 8 9 10 11 12 13 14
161
FTUS43 KSGF 180523
TAFJLN
TAF
KJLN 180523Z 1806/1906 20007KT P6SM SKC
     FM181300 20012G24KT P6SM SKC
     FM190000 19012KT P6SM SKC=

USA.gov is the U.S. government's official web portal to all federal, state and local government web resources and services.